sensor_id;sensor_type;location;lat;lon;timestamp;temperature;humidity
18139;DHT22;9195;53.176;9.486;2022-09-30T00:01:33;10.20;99.90
18139;DHT22;9195;53.176;9.486;2022-09-30T00:04:00;10.20;99.90
18139;DHT22;9195;53.176;9.486;2022-09-30T00:06:27;10.20;99.90
18139;DHT22;9195;53.176;9.486;2022-09-30T00:08:54;10.10;99.90
18139;DHT22;9195;53.176;9.486;2022-09-30T00:11:22;10.10;99.90
18139;DHT22;9195;53.176;9.486;2022-09-30T00:13:50;10.10;99.90
18139;DHT22;9195;53.176;9.486;2022-09-30T00:16:18;10.00;99.90
18139;DHT22;9195;53.176;9.486;2022-09-30T00:18:44;10.00;99.90
18139;DHT22;9195;53.176;9.486;2022-09-30T00:21:10;10.00;99.90
18139;DHT22;9195;53.176;9.486;2022-09-30T00:23:37;10.00;99.90
18139;DHT22;9195;53.176;9.486;2022-09-30T00:26:06;10.00;99.90
18139;DHT22;9195;53.176;9.486;2022-09-30T00:28:32;10.10;99.90
18139;DHT22;9195;53.176;9.486;2022-09-30T00:31:04;10.10;99.90
18139;DHT22;9195;53.176;9.486;2022-09-30T00:33:32;10.10;99.90
18139;DHT22;9195;53.176;9.486;2022-09-30T00:35:57;10.10;99.90
18139;DHT22;9195;53.176;9.486;2022-09-30T00:38:23;10.10;99.90
18139;DHT22;9195;53.176;9.486;2022-09-30T00:40:49;10.20;99.90
18139;DHT22;9195;53.176;9.486;2022-09-30T00:43:37;10.20;99.90
18139;DHT22;9195;53.176;9.486;2022-09-30T00:46:05;10.20;99.90
18139;DHT22;9195;53.176;9.486;2022-09-30T00:48:37;10.20;99.90
18139;DHT22;9195;53.176;9.486;2022-09-30T00:51:05;10.30;99.90
18139;DHT22;9195;53.176;9.486;2022-09-30T00:53:43;10.20;99.90
18139;DHT22;9195;53.176;9.486;2022-09-30T00:56:16;10.20;99.90
18139;DHT22;9195;53.176;9.486;2022-09-30T00:58:50;10.20;99.90
18139;DHT22;9195;53.176;9.486;2022-09-30T01:01:18;10.30;99.90
18139;DHT22;9195;53.176;9.486;2022-09-30T01:03:53;10.20;99.90
18139;DHT22;9195;53.176;9.486;2022-09-30T01:06:21;10.20;99.90
18139;DHT22;9195;53.176;9.486;2022-09-30T01:08:48;10.20;99.90
18139;DHT22;9195;53.176;9.486;2022-09-30T01:11:13;10.30;99.90
18139;DHT22;9195;53.176;9.486;2022-09-30T01:13:40;10.30;99.90
18139;DHT22;9195;53.176;9.486;2022-09-30T01:16:36;10.30;99.90
18139;DHT22;9195;53.176;9.486;2022-09-30T01:19:23;10.30;99.90
18139;DHT22;9195;53.176;9.486;2022-09-30T01:21:58;10.30;99.90
18139;DHT22;9195;53.176;9.486;2022-09-30T01:33:16;10.30;99.90
18139;DHT22;9195;53.176;9.486;2022-09-30T01:41:10;10.20;99.90
18139;DHT22;9195;53.176;9.486;2022-09-30T01:46:56;10.20;99.90
18139;DHT22;9195;53.176;9.486;2022-09-30T01:52:14;10.10;99.90
18139;DHT22;9195;53.176;9.486;2022-09-30T01:57:29;10.00;99.90
18139;DHT22;9195;53.176;9.486;2022-09-30T02:00:04;9.90;99.90
18139;DHT22;9195;53.176;9.486;2022-09-30T02:02:55;9.90;99.90
18139;DHT22;9195;53.176;9.486;2022-09-30T02:07:57;9.80;99.90
18139;DHT22;9195;53.176;9.486;2022-09-30T02:10:38;9.70;99.90
18139;DHT22;9195;53.176;9.486;2022-09-30T02:13:24;9.60;99.90
18139;DHT22;9195;53.176;9.486;2022-09-30T02:16:00;9.60;99.90
18139;DHT22;9195;53.176;9.486;2022-09-30T02:18:33;9.60;99.90
18139;DHT22;9195;53.176;9.486;2022-09-30T02:21:04;9.60;99.90
18139;DHT22;9195;53.176;9.486;2022-09-30T02:23:33;9.60;99.90
18139;DHT22;9195;53.176;9.486;2022-09-30T02:26:12;9.60;99.90
18139;DHT22;9195;53.176;9.486;2022-09-30T02:28:45;9.50;99.90
18139;DHT22;9195;53.176;9.486;2022-09-30T02:31:14;9.50;99.90
18139;DHT22;9195;53.176;9.486;2022-09-30T02:33:46;9.50;99.90
18139;DHT22;9195;53.176;9.486;2022-09-30T02:36:39;9.40;99.90
18139;DHT22;9195;53.176;9.486;2022-09-30T02:39:12;9.30;99.90
18139;DHT22;9195;53.176;9.486;2022-09-30T02:41:58;9.30;99.90
18139;DHT22;9195;53.176;9.486;2022-09-30T02:44:25;9.30;99.90
18139;DHT22;9195;53.176;9.486;2022-09-30T02:49:48;9.20;99.90
18139;DHT22;9195;53.176;9.486;2022-09-30T02:52:26;9.20;99.90
18139;DHT22;9195;53.176;9.486;2022-09-30T02:57:53;9.10;99.90
18139;DHT22;9195;53.176;9.486;2022-09-30T03:00:20;9.10;99.90
18139;DHT22;9195;53.176;9.486;2022-09-30T03:02:45;9.10;99.90
18139;DHT22;9195;53.176;9.486;2022-09-30T03:05:11;9.10;99.90
18139;DHT22;9195;53.176;9.486;2022-09-30T03:07:37;9.00;99.90
18139;DHT22;9195;53.176;9.486;2022-09-30T03:10:21;9.00;99.90
18139;DHT22;9195;53.176;9.486;2022-09-30T03:13:09;9.00;99.90
18139;DHT22;9195;53.176;9.486;2022-09-30T03:18:44;8.90;99.90
18139;DHT22;9195;53.176;9.486;2022-09-30T03:29:43;8.80;99.90
18139;DHT22;9195;53.176;9.486;2022-09-30T03:35:21;8.80;99.90
18139;DHT22;9195;53.176;9.486;2022-09-30T03:40:55;8.80;99.90
18139;DHT22;9195;53.176;9.486;2022-09-30T03:43:30;8.70;99.90
18139;DHT22;9195;53.176;9.486;2022-09-30T03:46:02;8.70;99.90
18139;DHT22;9195;53.176;9.486;2022-09-30T03:48:32;8.70;99.90
18139;DHT22;9195;53.176;9.486;2022-09-30T03:50:59;8.70;99.90
18139;DHT22;9195;53.176;9.486;2022-09-30T03:53:26;8.60;99.90
18139;DHT22;9195;53.176;9.486;2022-09-30T03:55:53;8.70;99.90
18139;DHT22;9195;53.176;9.486;2022-09-30T03:58:20;8.70;99.90
18139;DHT22;9195;53.176;9.486;2022-09-30T04:00:51;8.70;99.90
18139;DHT22;9195;53.176;9.486;2022-09-30T04:03:21;8.80;99.90
18139;DHT22;9195;53.176;9.486;2022-09-30T04:05:47;8.80;99.90
18139;DHT22;9195;53.176;9.486;2022-09-30T04:08:13;8.80;99.90
18139;DHT22;9195;53.176;9.486;2022-09-30T04:10:40;8.80;99.90
18139;DHT22;9195;53.176;9.486;2022-09-30T04:13:07;8.80;99.90
18139;DHT22;9195;53.176;9.486;2022-09-30T04:15:34;8.80;99.90
18139;DHT22;9195;53.176;9.486;2022-09-30T04:18:00;8.80;99.90
18139;DHT22;9195;53.176;9.486;2022-09-30T04:20:26;8.90;99.90
18139;DHT22;9195;53.176;9.486;2022-09-30T04:22:51;8.90;99.90
18139;DHT22;9195;53.176;9.486;2022-09-30T04:25:17;8.80;99.90
18139;DHT22;9195;53.176;9.486;2022-09-30T04:27:43;8.80;99.90
18139;DHT22;9195;53.176;9.486;2022-09-30T04:30:09;8.80;99.90
18139;DHT22;9195;53.176;9.486;2022-09-30T04:32:34;8.70;99.90
18139;DHT22;9195;53.176;9.486;2022-09-30T04:35:00;8.70;99.90
18139;DHT22;9195;53.176;9.486;2022-09-30T04:37:26;8.70;99.90
18139;DHT22;9195;53.176;9.486;2022-09-30T04:39:51;8.70;99.90
18139;DHT22;9195;53.176;9.486;2022-09-30T04:42:17;8.70;99.90
18139;DHT22;9195;53.176;9.486;2022-09-30T04:44:43;8.60;99.90
18139;DHT22;9195;53.176;9.486;2022-09-30T04:47:08;8.60;99.90
18139;DHT22;9195;53.176;9.486;2022-09-30T04:49:34;8.60;99.90
18139;DHT22;9195;53.176;9.486;2022-09-30T04:52:00;8.50;99.90
18139;DHT22;9195;53.176;9.486;2022-09-30T04:54:26;8.50;99.90
18139;DHT22;9195;53.176;9.486;2022-09-30T04:56:51;8.50;99.90
18139;DHT22;9195;53.176;9.486;2022-09-30T04:59:17;8.50;99.90
18139;DHT22;9195;53.176;9.486;2022-09-30T05:01:42;8.50;99.90
18139;DHT22;9195;53.176;9.486;2022-09-30T05:04:09;8.40;99.90
18139;DHT22;9195;53.176;9.486;2022-09-30T05:06:36;8.40;99.90
18139;DHT22;9195;53.176;9.486;2022-09-30T05:09:04;8.40;99.90
18139;DHT22;9195;53.176;9.486;2022-09-30T05:11:30;8.30;99.90
18139;DHT22;9195;53.176;9.486;2022-09-30T05:13:56;8.30;99.90
18139;DHT22;9195;53.176;9.486;2022-09-30T05:16:21;8.30;99.90
18139;DHT22;9195;53.176;9.486;2022-09-30T05:18:47;8.30;99.90
18139;DHT22;9195;53.176;9.486;2022-09-30T05:21:15;8.30;99.90
18139;DHT22;9195;53.176;9.486;2022-09-30T05:23:44;8.30;99.90
18139;DHT22;9195;53.176;9.486;2022-09-30T05:26:10;8.30;99.90
18139;DHT22;9195;53.176;9.486;2022-09-30T05:28:36;8.30;99.90
18139;DHT22;9195;53.176;9.486;2022-09-30T05:31:03;8.20;99.90
18139;DHT22;9195;53.176;9.486;2022-09-30T05:33:31;8.20;99.90
18139;DHT22;9195;53.176;9.486;2022-09-30T05:36:06;8.20;99.90
18139;DHT22;9195;53.176;9.486;2022-09-30T05:38:33;8.20;99.90
18139;DHT22;9195;53.176;9.486;2022-09-30T05:41:08;8.20;99.90
18139;DHT22;9195;53.176;9.486;2022-09-30T05:43:37;8.20;99.90
18139;DHT22;9195;53.176;9.486;2022-09-30T05:46:03;8.30;99.90
18139;DHT22;9195;53.176;9.486;2022-09-30T05:48:28;8.30;99.90
18139;DHT22;9195;53.176;9.486;2022-09-30T05:50:56;8.30;99.90
18139;DHT22;9195;53.176;9.486;2022-09-30T05:53:22;8.30;99.90
18139;DHT22;9195;53.176;9.486;2022-09-30T05:55:48;8.30;99.90
18139;DHT22;9195;53.176;9.486;2022-09-30T05:58:15;8.30;99.90
18139;DHT22;9195;53.176;9.486;2022-09-30T06:00:42;8.40;99.90
18139;DHT22;9195;53.176;9.486;2022-09-30T06:03:09;8.40;99.90
18139;DHT22;9195;53.176;9.486;2022-09-30T06:05:35;8.40;99.90
18139;DHT22;9195;53.176;9.486;2022-09-30T06:08:01;8.40;99.90
18139;DHT22;9195;53.176;9.486;2022-09-30T06:10:28;8.40;99.90
18139;DHT22;9195;53.176;9.486;2022-09-30T06:12:53;8.50;99.90
18139;DHT22;9195;53.176;9.486;2022-09-30T06:15:19;8.50;99.90
18139;DHT22;9195;53.176;9.486;2022-09-30T06:17:50;8.50;99.90
18139;DHT22;9195;53.176;9.486;2022-09-30T06:20:16;8.50;99.90
18139;DHT22;9195;53.176;9.486;2022-09-30T06:22:41;8.50;99.90
18139;DHT22;9195;53.176;9.486;2022-09-30T06:25:08;8.60;99.90
18139;DHT22;9195;53.176;9.486;2022-09-30T06:27:34;8.70;99.90
18139;DHT22;9195;53.176;9.486;2022-09-30T06:30:01;8.60;99.90
18139;DHT22;9195;53.176;9.486;2022-09-30T06:32:27;8.70;99.90
18139;DHT22;9195;53.176;9.486;2022-09-30T06:34:54;8.70;99.90
18139;DHT22;9195;53.176;9.486;2022-09-30T06:37:23;8.80;99.90
18139;DHT22;9195;53.176;9.486;2022-09-30T06:39:49;8.90;99.90
18139;DHT22;9195;53.176;9.486;2022-09-30T06:42:16;9.00;99.90
18139;DHT22;9195;53.176;9.486;2022-09-30T06:44:43;9.00;99.90
18139;DHT22;9195;53.176;9.486;2022-09-30T06:47:09;9.10;99.90
18139;DHT22;9195;53.176;9.486;2022-09-30T06:49:35;9.10;99.90
18139;DHT22;9195;53.176;9.486;2022-09-30T06:52:01;9.20;99.90
18139;DHT22;9195;53.176;9.486;2022-09-30T06:54:27;9.20;99.90
18139;DHT22;9195;53.176;9.486;2022-09-30T06:56:53;9.30;99.90
18139;DHT22;9195;53.176;9.486;2022-09-30T06:59:22;9.40;99.90
18139;DHT22;9195;53.176;9.486;2022-09-30T07:01:48;9.50;99.90
18139;DHT22;9195;53.176;9.486;2022-09-30T07:04:14;9.70;99.90
18139;DHT22;9195;53.176;9.486;2022-09-30T07:06:39;9.80;99.90
18139;DHT22;9195;53.176;9.486;2022-09-30T07:09:06;9.90;99.90
18139;DHT22;9195;53.176;9.486;2022-09-30T07:11:32;10.00;99.90
18139;DHT22;9195;53.176;9.486;2022-09-30T07:13:59;10.00;99.90
18139;DHT22;9195;53.176;9.486;2022-09-30T07:16:25;10.20;99.90
18139;DHT22;9195;53.176;9.486;2022-09-30T07:18:51;10.20;99.90
18139;DHT22;9195;53.176;9.486;2022-09-30T07:21:17;10.30;99.90
18139;DHT22;9195;53.176;9.486;2022-09-30T07:23:43;10.40;99.90
18139;DHT22;9195;53.176;9.486;2022-09-30T07:26:14;10.50;99.90
18139;DHT22;9195;53.176;9.486;2022-09-30T07:28:40;10.70;99.90
18139;DHT22;9195;53.176;9.486;2022-09-30T07:31:08;10.80;99.90
18139;DHT22;9195;53.176;9.486;2022-09-30T07:33:36;11.00;99.90
18139;DHT22;9195;53.176;9.486;2022-09-30T07:36:04;11.20;99.90
18139;DHT22;9195;53.176;9.486;2022-09-30T07:38:33;11.30;99.90
18139;DHT22;9195;53.176;9.486;2022-09-30T07:41:07;11.40;99.90
18139;DHT22;9195;53.176;9.486;2022-09-30T07:43:34;11.60;99.90
18139;DHT22;9195;53.176;9.486;2022-09-30T07:46:08;11.70;99.90
18139;DHT22;9195;53.176;9.486;2022-09-30T07:48:36;11.70;99.90
18139;DHT22;9195;53.176;9.486;2022-09-30T07:53:39;12.00;99.90
18139;DHT22;9195;53.176;9.486;2022-09-30T07:56:06;12.20;99.90
18139;DHT22;9195;53.176;9.486;2022-09-30T07:58:32;12.30;99.90
18139;DHT22;9195;53.176;9.486;2022-09-30T08:00:58;12.30;99.90
18139;DHT22;9195;53.176;9.486;2022-09-30T08:03:24;12.30;99.90
18139;DHT22;9195;53.176;9.486;2022-09-30T08:05:50;12.40;99.90
18139;DHT22;9195;53.176;9.486;2022-09-30T08:08:16;12.50;99.90
18139;DHT22;9195;53.176;9.486;2022-09-30T08:10:42;12.70;99.90
18139;DHT22;9195;53.176;9.486;2022-09-30T08:13:08;12.80;99.90
18139;DHT22;9195;53.176;9.486;2022-09-30T08:15:34;13.00;99.90
18139;DHT22;9195;53.176;9.486;2022-09-30T08:18:01;13.20;99.90
18139;DHT22;9195;53.176;9.486;2022-09-30T08:20:26;13.30;99.90
18139;DHT22;9195;53.176;9.486;2022-09-30T08:22:53;13.40;99.90
18139;DHT22;9195;53.176;9.486;2022-09-30T08:25:19;13.40;99.90
18139;DHT22;9195;53.176;9.486;2022-09-30T08:27:45;13.60;99.90
18139;DHT22;9195;53.176;9.486;2022-09-30T08:30:13;13.80;99.90
18139;DHT22;9195;53.176;9.486;2022-09-30T08:32:39;13.80;99.90
18139;DHT22;9195;53.176;9.486;2022-09-30T08:35:05;13.90;99.90
18139;DHT22;9195;53.176;9.486;2022-09-30T08:37:31;14.00;99.90
18139;DHT22;9195;53.176;9.486;2022-09-30T08:39:56;14.10;99.90
18139;DHT22;9195;53.176;9.486;2022-09-30T08:42:54;14.30;99.90
18139;DHT22;9195;53.176;9.486;2022-09-30T08:53:44;14.80;99.90
18139;DHT22;9195;53.176;9.486;2022-09-30T08:56:30;14.80;99.90
18139;DHT22;9195;53.176;9.486;2022-09-30T09:02:42;15.00;99.90
18139;DHT22;9195;53.176;9.486;2022-09-30T09:05:15;14.90;99.90
18139;DHT22;9195;53.176;9.486;2022-09-30T09:07:50;15.00;99.90
18139;DHT22;9195;53.176;9.486;2022-09-30T09:12:54;15.20;99.90
18139;DHT22;9195;53.176;9.486;2022-09-30T09:21:22;15.70;99.90
18139;DHT22;9195;53.176;9.486;2022-09-30T09:23:56;15.90;99.90
18139;DHT22;9195;53.176;9.486;2022-09-30T09:26:23;15.90;99.90
18139;DHT22;9195;53.176;9.486;2022-09-30T09:29:07;16.10;99.90
18139;DHT22;9195;53.176;9.486;2022-09-30T09:31:35;16.20;99.90
18139;DHT22;9195;53.176;9.486;2022-09-30T09:34:08;16.30;99.90
18139;DHT22;9195;53.176;9.486;2022-09-30T09:42:48;16.80;99.90
18139;DHT22;9195;53.176;9.486;2022-09-30T09:45:28;16.60;99.90
18139;DHT22;9195;53.176;9.486;2022-09-30T09:47:55;16.70;99.90
18139;DHT22;9195;53.176;9.486;2022-09-30T09:53:49;16.80;99.90
18139;DHT22;9195;53.176;9.486;2022-09-30T09:56:18;17.00;99.90
18139;DHT22;9195;53.176;9.486;2022-09-30T09:59:03;17.30;99.90
18139;DHT22;9195;53.176;9.486;2022-09-30T10:01:31;17.60;99.90
18139;DHT22;9195;53.176;9.486;2022-09-30T10:04:21;17.70;99.90
18139;DHT22;9195;53.176;9.486;2022-09-30T10:06:54;17.90;99.90
18139;DHT22;9195;53.176;9.486;2022-09-30T10:09:34;18.10;99.90
18139;DHT22;9195;53.176;9.486;2022-09-30T10:14:40;18.10;99.90
18139;DHT22;9195;53.176;9.486;2022-09-30T10:17:25;18.50;99.90
18139;DHT22;9195;53.176;9.486;2022-09-30T10:19:54;18.70;99.90
18139;DHT22;9195;53.176;9.486;2022-09-30T10:22:26;18.30;99.90
18139;DHT22;9195;53.176;9.486;2022-09-30T10:25:18;18.40;99.90
18139;DHT22;9195;53.176;9.486;2022-09-30T10:27:57;18.80;99.90
18139;DHT22;9195;53.176;9.486;2022-09-30T10:33:00;19.70;99.90
18139;DHT22;9195;53.176;9.486;2022-09-30T10:35:28;19.90;99.90
18139;DHT22;9195;53.176;9.486;2022-09-30T10:37:57;19.40;99.90
18139;DHT22;9195;53.176;9.486;2022-09-30T10:40:27;19.40;99.90
18139;DHT22;9195;53.176;9.486;2022-09-30T10:42:53;19.00;99.90
18139;DHT22;9195;53.176;9.486;2022-09-30T10:45:23;19.00;99.90
18139;DHT22;9195;53.176;9.486;2022-09-30T10:47:52;19.30;99.90
18139;DHT22;9195;53.176;9.486;2022-09-30T10:50:22;19.50;99.90
18139;DHT22;9195;53.176;9.486;2022-09-30T10:57:48;20.60;99.90
18139;DHT22;9195;53.176;9.486;2022-09-30T11:00:18;21.30;98.80
18139;DHT22;9195;53.176;9.486;2022-09-30T11:02:58;22.00;98.40
18139;DHT22;9195;53.176;9.486;2022-09-30T11:14:30;22.50;95.60
18139;DHT22;9195;53.176;9.486;2022-09-30T11:17:14;24.00;94.20
18139;DHT22;9195;53.176;9.486;2022-09-30T11:22:42;25.70;89.00
18139;DHT22;9195;53.176;9.486;2022-09-30T11:25:15;22.90;92.40
18139;DHT22;9195;53.176;9.486;2022-09-30T11:30:26;24.30;90.60
18139;DHT22;9195;53.176;9.486;2022-09-30T11:38:55;25.40;86.20
18139;DHT22;9195;53.176;9.486;2022-09-30T11:41:38;27.40;81.50
18139;DHT22;9195;53.176;9.486;2022-09-30T11:44:30;29.40;75.20
18139;DHT22;9195;53.176;9.486;2022-09-30T11:48:21;30.10;72.50
18139;DHT22;9195;53.176;9.486;2022-09-30T11:51:01;29.70;72.10
18139;DHT22;9195;53.176;9.486;2022-09-30T11:59:35;24.10;80.60
18139;DHT22;9195;53.176;9.486;2022-09-30T12:07:56;26.30;76.50
18139;DHT22;9195;53.176;9.486;2022-09-30T12:10:32;28.20;75.40
18139;DHT22;9195;53.176;9.486;2022-09-30T12:15:57;30.80;69.00
18139;DHT22;9195;53.176;9.486;2022-09-30T12:21:00;29.90;66.40
18139;DHT22;9195;53.176;9.486;2022-09-30T12:23:39;30.00;65.70
18139;DHT22;9195;53.176;9.486;2022-09-30T12:26:06;29.90;66.20
18139;DHT22;9195;53.176;9.486;2022-09-30T12:28:59;29.30;66.50
18139;DHT22;9195;53.176;9.486;2022-09-30T12:40:36;26.30;73.60
18139;DHT22;9195;53.176;9.486;2022-09-30T12:48:57;26.50;74.40
18139;DHT22;9195;53.176;9.486;2022-09-30T12:51:34;26.30;74.20
18139;DHT22;9195;53.176;9.486;2022-09-30T12:56:41;27.00;70.20
18139;DHT22;9195;53.176;9.486;2022-09-30T12:59:07;28.30;67.70
18139;DHT22;9195;53.176;9.486;2022-09-30T13:01:38;28.60;65.10
18139;DHT22;9195;53.176;9.486;2022-09-30T13:14:36;33.10;61.20
18139;DHT22;9195;53.176;9.486;2022-09-30T13:30:39;28.80;59.70
18139;DHT22;9195;53.176;9.486;2022-09-30T13:33:29;29.60;61.10
18139;DHT22;9195;53.176;9.486;2022-09-30T13:36:05;32.20;59.80
18139;DHT22;9195;53.176;9.486;2022-09-30T13:38:38;34.20;57.20
18139;DHT22;9195;53.176;9.486;2022-09-30T13:41:15;34.20;55.80
18139;DHT22;9195;53.176;9.486;2022-09-30T13:43:53;35.80;54.90
18139;DHT22;9195;53.176;9.486;2022-09-30T13:51:48;38.30;50.90
18139;DHT22;9195;53.176;9.486;2022-09-30T13:54:25;36.10;50.50
18139;DHT22;9195;53.176;9.486;2022-09-30T13:56:53;32.20;55.00
18139;DHT22;9195;53.176;9.486;2022-09-30T14:04:57;32.10;55.90
18139;DHT22;9195;53.176;9.486;2022-09-30T14:18:36;29.30;63.00
18139;DHT22;9195;53.176;9.486;2022-09-30T14:24:00;27.30;64.00
18139;DHT22;9195;53.176;9.486;2022-09-30T14:29:22;29.90;60.10
18139;DHT22;9195;53.176;9.486;2022-09-30T14:31:51;27.60;62.40
18139;DHT22;9195;53.176;9.486;2022-09-30T14:34:18;27.80;62.60
18139;DHT22;9195;53.176;9.486;2022-09-30T14:36:46;25.90;65.70
18139;DHT22;9195;53.176;9.486;2022-09-30T14:39:25;24.20;68.60
18139;DHT22;9195;53.176;9.486;2022-09-30T14:41:57;23.00;71.10
18139;DHT22;9195;53.176;9.486;2022-09-30T14:44:28;22.10;74.00
18139;DHT22;9195;53.176;9.486;2022-09-30T14:46:55;21.70;75.90
18139;DHT22;9195;53.176;9.486;2022-09-30T14:49:28;21.40;76.80
18139;DHT22;9195;53.176;9.486;2022-09-30T14:51:58;20.80;76.80
18139;DHT22;9195;53.176;9.486;2022-09-30T14:54:26;20.50;77.60
18139;DHT22;9195;53.176;9.486;2022-09-30T14:56:56;20.70;78.40
18139;DHT22;9195;53.176;9.486;2022-09-30T14:59:24;20.40;79.00
18139;DHT22;9195;53.176;9.486;2022-09-30T15:01:56;24.30;73.90
18139;DHT22;9195;53.176;9.486;2022-09-30T15:06:52;24.30;72.10
18139;DHT22;9195;53.176;9.486;2022-09-30T15:11:49;25.00;70.40
18139;DHT22;9195;53.176;9.486;2022-09-30T15:14:19;25.40;69.10
18139;DHT22;9195;53.176;9.486;2022-09-30T15:16:53;25.70;67.90
18139;DHT22;9195;53.176;9.486;2022-09-30T15:19:30;26.40;66.60
18139;DHT22;9195;53.176;9.486;2022-09-30T15:22:01;27.60;65.50
18139;DHT22;9195;53.176;9.486;2022-09-30T15:24:29;28.50;63.90
18139;DHT22;9195;53.176;9.486;2022-09-30T15:26:58;28.50;62.90
18139;DHT22;9195;53.176;9.486;2022-09-30T15:29:24;27.10;64.70
18139;DHT22;9195;53.176;9.486;2022-09-30T15:32:14;26.50;66.00
18139;DHT22;9195;53.176;9.486;2022-09-30T15:34:42;26.10;66.30
18139;DHT22;9195;53.176;9.486;2022-09-30T15:37:20;26.30;66.40
18139;DHT22;9195;53.176;9.486;2022-09-30T15:39:47;28.90;64.00
18139;DHT22;9195;53.176;9.486;2022-09-30T15:42:55;30.30;61.80
18139;DHT22;9195;53.176;9.486;2022-09-30T15:45:31;31.50;59.50
18139;DHT22;9195;53.176;9.486;2022-09-30T15:48:06;31.70;58.40
18139;DHT22;9195;53.176;9.486;2022-09-30T15:50:50;31.80;58.00
18139;DHT22;9195;53.176;9.486;2022-09-30T15:53:28;32.20;58.20
18139;DHT22;9195;53.176;9.486;2022-09-30T15:55:59;31.80;57.90
18139;DHT22;9195;53.176;9.486;2022-09-30T15:58:40;31.90;57.80
18139;DHT22;9195;53.176;9.486;2022-09-30T16:01:19;31.30;57.90
18139;DHT22;9195;53.176;9.486;2022-09-30T16:03:54;30.50;58.30
18139;DHT22;9195;53.176;9.486;2022-09-30T16:06:32;30.60;59.50
18139;DHT22;9195;53.176;9.486;2022-09-30T16:12:01;29.50;59.90
18139;DHT22;9195;53.176;9.486;2022-09-30T16:14:34;28.80;61.30
18139;DHT22;9195;53.176;9.486;2022-09-30T16:17:04;28.70;62.00
18139;DHT22;9195;53.176;9.486;2022-09-30T16:19:30;28.00;62.80
18139;DHT22;9195;53.176;9.486;2022-09-30T16:21:57;27.80;64.40
18139;DHT22;9195;53.176;9.486;2022-09-30T16:27:00;26.20;66.80
18139;DHT22;9195;53.176;9.486;2022-09-30T16:29:39;24.10;70.00
18139;DHT22;9195;53.176;9.486;2022-09-30T16:32:07;22.00;73.90
18139;DHT22;9195;53.176;9.486;2022-09-30T16:34:34;20.80;77.30
18139;DHT22;9195;53.176;9.486;2022-09-30T16:37:22;19.80;80.50
18139;DHT22;9195;53.176;9.486;2022-09-30T16:39:48;18.90;83.00
18139;DHT22;9195;53.176;9.486;2022-09-30T16:42:15;18.30;85.10
18139;DHT22;9195;53.176;9.486;2022-09-30T16:44:41;17.80;87.30
18139;DHT22;9195;53.176;9.486;2022-09-30T16:47:18;17.40;88.60
18139;DHT22;9195;53.176;9.486;2022-09-30T16:49:45;17.00;90.00
18139;DHT22;9195;53.176;9.486;2022-09-30T16:52:12;16.70;90.40
18139;DHT22;9195;53.176;9.486;2022-09-30T16:54:38;16.50;91.10
18139;DHT22;9195;53.176;9.486;2022-09-30T16:57:04;16.20;91.60
18139;DHT22;9195;53.176;9.486;2022-09-30T16:59:29;15.90;92.10
18139;DHT22;9195;53.176;9.486;2022-09-30T17:01:58;15.70;92.70
18139;DHT22;9195;53.176;9.486;2022-09-30T17:04:25;15.50;92.90
18139;DHT22;9195;53.176;9.486;2022-09-30T17:06:51;15.30;93.40
18139;DHT22;9195;53.176;9.486;2022-09-30T17:09:18;15.10;93.80
18139;DHT22;9195;53.176;9.486;2022-09-30T17:11:44;15.00;94.20
18139;DHT22;9195;53.176;9.486;2022-09-30T17:14:10;14.90;94.70
18139;DHT22;9195;53.176;9.486;2022-09-30T17:16:35;14.70;95.30
18139;DHT22;9195;53.176;9.486;2022-09-30T17:19:01;14.60;95.60
18139;DHT22;9195;53.176;9.486;2022-09-30T17:21:27;14.40;95.80
18139;DHT22;9195;53.176;9.486;2022-09-30T17:23:55;14.30;96.20
18139;DHT22;9195;53.176;9.486;2022-09-30T17:26:22;14.20;96.50
18139;DHT22;9195;53.176;9.486;2022-09-30T17:28:48;14.10;96.70
18139;DHT22;9195;53.176;9.486;2022-09-30T17:31:13;14.00;97.00
18139;DHT22;9195;53.176;9.486;2022-09-30T17:33:40;13.90;97.20
18139;DHT22;9195;53.176;9.486;2022-09-30T17:36:08;13.80;97.60
18139;DHT22;9195;53.176;9.486;2022-09-30T17:38:35;13.70;97.70
18139;DHT22;9195;53.176;9.486;2022-09-30T17:41:01;13.60;97.90
18139;DHT22;9195;53.176;9.486;2022-09-30T17:43:46;13.50;98.00
18139;DHT22;9195;53.176;9.486;2022-09-30T17:46:12;13.50;98.20
18139;DHT22;9195;53.176;9.486;2022-09-30T17:48:43;13.40;98.50
18139;DHT22;9195;53.176;9.486;2022-09-30T17:51:10;13.30;98.80
18139;DHT22;9195;53.176;9.486;2022-09-30T17:53:36;13.30;98.90
18139;DHT22;9195;53.176;9.486;2022-09-30T17:56:10;13.20;99.10
18139;DHT22;9195;53.176;9.486;2022-09-30T17:58:38;13.10;99.40
18139;DHT22;9195;53.176;9.486;2022-09-30T18:01:05;13.10;99.60
18139;DHT22;9195;53.176;9.486;2022-09-30T18:03:32;13.00;99.70
18139;DHT22;9195;53.176;9.486;2022-09-30T18:05:58;13.00;99.90
18139;DHT22;9195;53.176;9.486;2022-09-30T18:08:24;12.90;99.90
18139;DHT22;9195;53.176;9.486;2022-09-30T18:10:50;12.80;99.90
18139;DHT22;9195;53.176;9.486;2022-09-30T18:13:19;12.80;99.90
18139;DHT22;9195;53.176;9.486;2022-09-30T18:15:45;12.80;99.90
18139;DHT22;9195;53.176;9.486;2022-09-30T18:18:12;12.70;99.90
18139;DHT22;9195;53.176;9.486;2022-09-30T18:20:45;12.60;99.90
18139;DHT22;9195;53.176;9.486;2022-09-30T18:23:12;12.60;99.90
18139;DHT22;9195;53.176;9.486;2022-09-30T18:25:38;12.50;99.90
18139;DHT22;9195;53.176;9.486;2022-09-30T18:28:06;12.50;99.90
18139;DHT22;9195;53.176;9.486;2022-09-30T18:30:36;12.50;99.90
18139;DHT22;9195;53.176;9.486;2022-09-30T18:33:02;12.40;99.90
18139;DHT22;9195;53.176;9.486;2022-09-30T18:35:30;12.40;99.90
18139;DHT22;9195;53.176;9.486;2022-09-30T18:37:58;12.40;99.90
18139;DHT22;9195;53.176;9.486;2022-09-30T18:40:25;12.40;99.90
18139;DHT22;9195;53.176;9.486;2022-09-30T18:42:56;12.30;99.90
18139;DHT22;9195;53.176;9.486;2022-09-30T18:45:26;12.30;99.90
18139;DHT22;9195;53.176;9.486;2022-09-30T18:47:58;12.30;99.90
18139;DHT22;9195;53.176;9.486;2022-09-30T18:50:25;12.30;99.90
18139;DHT22;9195;53.176;9.486;2022-09-30T18:52:51;12.20;99.90
18139;DHT22;9195;53.176;9.486;2022-09-30T18:55:18;12.20;99.90
18139;DHT22;9195;53.176;9.486;2022-09-30T18:57:44;12.20;99.90
18139;DHT22;9195;53.176;9.486;2022-09-30T19:00:13;12.10;99.90
18139;DHT22;9195;53.176;9.486;2022-09-30T19:02:41;12.10;99.90
18139;DHT22;9195;53.176;9.486;2022-09-30T19:05:09;12.10;99.90
18139;DHT22;9195;53.176;9.486;2022-09-30T19:07:35;12.00;99.90
18139;DHT22;9195;53.176;9.486;2022-09-30T19:10:04;12.00;99.90
18139;DHT22;9195;53.176;9.486;2022-09-30T19:12:34;12.00;99.90
18139;DHT22;9195;53.176;9.486;2022-09-30T19:15:07;12.00;99.90
18139;DHT22;9195;53.176;9.486;2022-09-30T19:17:33;12.00;99.90
18139;DHT22;9195;53.176;9.486;2022-09-30T19:19:59;11.90;99.90
18139;DHT22;9195;53.176;9.486;2022-09-30T19:22:26;11.90;99.90
18139;DHT22;9195;53.176;9.486;2022-09-30T19:24:52;11.90;99.90
18139;DHT22;9195;53.176;9.486;2022-09-30T19:27:18;11.80;99.90
18139;DHT22;9195;53.176;9.486;2022-09-30T19:29:47;11.80;99.90
18139;DHT22;9195;53.176;9.486;2022-09-30T19:32:15;11.80;99.90
18139;DHT22;9195;53.176;9.486;2022-09-30T19:34:43;11.70;99.90
18139;DHT22;9195;53.176;9.486;2022-09-30T19:37:10;11.70;99.90
18139;DHT22;9195;53.176;9.486;2022-09-30T19:39:36;11.70;99.90